sensor_id;sensor_type;location;lat;lon;timestamp;P1;durP1;ratioP1;P2;durP2;ratioP2
37001;SDS011;22913;51.910;8.374;2023-06-24T00:02:09;7.33;;;6.73;;
37001;SDS011;22913;51.910;8.374;2023-06-24T00:04:56;6.73;;;6.13;;
37001;SDS011;22913;51.910;8.374;2023-06-24T00:07:45;7.53;;;6.40;;
37001;SDS011;22913;51.910;8.374;2023-06-24T00:10:30;7.50;;;6.80;;
37001;SDS011;22913;51.910;8.374;2023-06-24T00:13:16;6.60;;;6.00;;
37001;SDS011;22913;51.910;8.374;2023-06-24T00:16:02;6.97;;;6.30;;
37001;SDS011;22913;51.910;8.374;2023-06-24T00:18:50;8.07;;;6.83;;
37001;SDS011;22913;51.910;8.374;2023-06-24T00:21:38;7.17;;;6.57;;
37001;SDS011;22913;51.910;8.374;2023-06-24T00:24:23;7.20;;;6.43;;
37001;SDS011;22913;51.910;8.374;2023-06-24T00:27:09;7.63;;;6.70;;
37001;SDS011;22913;51.910;8.374;2023-06-24T00:29:54;8.10;;;7.30;;
37001;SDS011;22913;51.910;8.374;2023-06-24T00:32:40;6.80;;;6.20;;
37001;SDS011;22913;51.910;8.374;2023-06-24T00:35:26;7.20;;;6.50;;
37001;SDS011;22913;51.910;8.374;2023-06-24T00:38:13;8.23;;;7.40;;
37001;SDS011;22913;51.910;8.374;2023-06-24T00:40:58;7.30;;;6.60;;
37001;SDS011;22913;51.910;8.374;2023-06-24T00:43:44;8.50;;;7.77;;
37001;SDS011;22913;51.910;8.374;2023-06-24T00:46:29;7.53;;;6.90;;
37001;SDS011;22913;51.910;8.374;2023-06-24T00:49:16;9.43;;;7.10;;
37001;SDS011;22913;51.910;8.374;2023-06-24T00:52:02;7.77;;;7.07;;
37001;SDS011;22913;51.910;8.374;2023-06-24T00:54:49;8.00;;;7.17;;
37001;SDS011;22913;51.910;8.374;2023-06-24T00:57:35;7.80;;;7.10;;
37001;SDS011;22913;51.910;8.374;2023-06-24T01:00:22;8.37;;;7.10;;
37001;SDS011;22913;51.910;8.374;2023-06-24T01:03:08;7.60;;;6.90;;
37001;SDS011;22913;51.910;8.374;2023-06-24T01:05:57;7.73;;;7.10;;
37001;SDS011;22913;51.910;8.374;2023-06-24T01:08:43;8.43;;;7.10;;
37001;SDS011;22913;51.910;8.374;2023-06-24T01:11:35;8.30;;;7.50;;
37001;SDS011;22913;51.910;8.374;2023-06-24T01:14:21;10.07;;;7.60;;
37001;SDS011;22913;51.910;8.374;2023-06-24T01:17:09;8.87;;;7.27;;
37001;SDS011;22913;51.910;8.374;2023-06-24T01:20:02;7.60;;;6.90;;
37001;SDS011;22913;51.910;8.374;2023-06-24T01:22:59;8.07;;;7.27;;
37001;SDS011;22913;51.910;8.374;2023-06-24T01:26:31;9.37;;;7.67;;
37001;SDS011;22913;51.910;8.374;2023-06-24T01:29:41;8.30;;;7.60;;
37001;SDS011;22913;51.910;8.374;2023-06-24T01:32:40;8.23;;;7.33;;
37001;SDS011;22913;51.910;8.374;2023-06-24T01:35:31;9.00;;;8.10;;
37001;SDS011;22913;51.910;8.374;2023-06-24T01:38:19;9.53;;;8.53;;
37001;SDS011;22913;51.910;8.374;2023-06-24T01:41:08;9.03;;;8.23;;
37001;SDS011;22913;51.910;8.374;2023-06-24T01:43:57;8.20;;;7.50;;
37001;SDS011;22913;51.910;8.374;2023-06-24T01:46:44;8.77;;;7.97;;
37001;SDS011;22913;51.910;8.374;2023-06-24T01:49:34;8.93;;;8.03;;
37001;SDS011;22913;51.910;8.374;2023-06-24T01:52:25;9.40;;;8.40;;
37001;SDS011;22913;51.910;8.374;2023-06-24T01:55:15;9.10;;;8.30;;
37001;SDS011;22913;51.910;8.374;2023-06-24T01:58:03;9.00;;;8.20;;
37001;SDS011;22913;51.910;8.374;2023-06-24T02:00:52;8.53;;;7.73;;
37001;SDS011;22913;51.910;8.374;2023-06-24T02:03:37;8.73;;;7.93;;
37001;SDS011;22913;51.910;8.374;2023-06-24T02:06:26;8.50;;;7.70;;
37001;SDS011;22913;51.910;8.374;2023-06-24T02:09:14;8.67;;;7.83;;
37001;SDS011;22913;51.910;8.374;2023-06-24T02:12:02;9.10;;;8.20;;
37001;SDS011;22913;51.910;8.374;2023-06-24T02:14:49;8.83;;;8.03;;
37001;SDS011;22913;51.910;8.374;2023-06-24T02:17:37;8.87;;;8.13;;
37001;SDS011;22913;51.910;8.374;2023-06-24T02:20:24;9.20;;;8.40;;
37001;SDS011;22913;51.910;8.374;2023-06-24T02:23:13;9.97;;;8.87;;
37001;SDS011;22913;51.910;8.374;2023-06-24T02:25:59;8.87;;;8.03;;
37001;SDS011;22913;51.910;8.374;2023-06-24T02:28:46;9.30;;;8.40;;
37001;SDS011;22913;51.910;8.374;2023-06-24T02:31:33;9.93;;;8.90;;
37001;SDS011;22913;51.910;8.374;2023-06-24T02:34:18;9.67;;;8.77;;
37001;SDS011;22913;51.910;8.374;2023-06-24T02:37:04;9.23;;;8.30;;
37001;SDS011;22913;51.910;8.374;2023-06-24T02:39:52;10.00;;;9.10;;
37001;SDS011;22913;51.910;8.374;2023-06-24T02:42:37;9.70;;;8.70;;
37001;SDS011;22913;51.910;8.374;2023-06-24T02:45:23;10.77;;;9.73;;
37001;SDS011;22913;51.910;8.374;2023-06-24T02:48:08;10.50;;;9.33;;
37001;SDS011;22913;51.910;8.374;2023-06-24T02:50:55;10.47;;;9.57;;
37001;SDS011;22913;51.910;8.374;2023-06-24T02:53:43;10.70;;;9.17;;
37001;SDS011;22913;51.910;8.374;2023-06-24T02:56:32;10.37;;;9.50;;
37001;SDS011;22913;51.910;8.374;2023-06-24T02:59:25;12.67;;;10.50;;
37001;SDS011;22913;51.910;8.374;2023-06-24T03:02:11;10.63;;;9.63;;
37001;SDS011;22913;51.910;8.374;2023-06-24T03:04:57;12.53;;;11.23;;
37001;SDS011;22913;51.910;8.374;2023-06-24T03:07:45;11.30;;;9.97;;
37001;SDS011;22913;51.910;8.374;2023-06-24T03:10:31;10.13;;;9.17;;
37001;SDS011;22913;51.910;8.374;2023-06-24T03:13:18;10.10;;;9.13;;
37001;SDS011;22913;51.910;8.374;2023-06-24T03:16:04;11.00;;;9.73;;
37001;SDS011;22913;51.910;8.374;2023-06-24T03:18:56;11.83;;;8.73;;
37001;SDS011;22913;51.910;8.374;2023-06-24T03:21:41;10.87;;;9.87;;
37001;SDS011;22913;51.910;8.374;2023-06-24T03:24:27;10.17;;;9.27;;
37001;SDS011;22913;51.910;8.374;2023-06-24T03:27:13;10.37;;;9.33;;
37001;SDS011;22913;51.910;8.374;2023-06-24T03:30:00;10.90;;;9.90;;
37001;SDS011;22913;51.910;8.374;2023-06-24T03:32:46;10.20;;;9.40;;
37001;SDS011;22913;51.910;8.374;2023-06-24T03:35:32;10.47;;;9.37;;
37001;SDS011;22913;51.910;8.374;2023-06-24T03:38:18;10.17;;;9.17;;
37001;SDS011;22913;51.910;8.374;2023-06-24T03:41:03;9.47;;;8.67;;
37001;SDS011;22913;51.910;8.374;2023-06-24T03:43:48;10.43;;;9.37;;
37001;SDS011;22913;51.910;8.374;2023-06-24T03:46:35;9.40;;;8.50;;
37001;SDS011;22913;51.910;8.374;2023-06-24T03:49:21;9.93;;;9.03;;
37001;SDS011;22913;51.910;8.374;2023-06-24T03:52:06;9.40;;;8.50;;
37001;SDS011;22913;51.910;8.374;2023-06-24T03:54:52;9.77;;;8.77;;
37001;SDS011;22913;51.910;8.374;2023-06-24T03:57:38;10.07;;;9.17;;
37001;SDS011;22913;51.910;8.374;2023-06-24T04:00:24;13.10;;;9.10;;
37001;SDS011;22913;51.910;8.374;2023-06-24T04:03:11;8.83;;;8.03;;
37001;SDS011;22913;51.910;8.374;2023-06-24T04:05:56;9.77;;;8.80;;
37001;SDS011;22913;51.910;8.374;2023-06-24T04:08:42;8.80;;;8.00;;
37001;SDS011;22913;51.910;8.374;2023-06-24T04:11:28;9.43;;;8.60;;
37001;SDS011;22913;51.910;8.374;2023-06-24T04:14:13;10.60;;;9.20;;
37001;SDS011;22913;51.910;8.374;2023-06-24T04:16:59;9.83;;;8.83;;
37001;SDS011;22913;51.910;8.374;2023-06-24T04:19:47;10.33;;;9.33;;
37001;SDS011;22913;51.910;8.374;2023-06-24T04:22:33;8.63;;;7.93;;
37001;SDS011;22913;51.910;8.374;2023-06-24T04:25:18;11.30;;;8.63;;
37001;SDS011;22913;51.910;8.374;2023-06-24T04:28:04;10.83;;;9.20;;
37001;SDS011;22913;51.910;8.374;2023-06-24T04:30:49;10.30;;;9.23;;
37001;SDS011;22913;51.910;8.374;2023-06-24T04:33:35;10.63;;;9.53;;
37001;SDS011;22913;51.910;8.374;2023-06-24T04:36:22;11.13;;;9.10;;
37001;SDS011;22913;51.910;8.374;2023-06-24T04:39:07;10.73;;;9.73;;
37001;SDS011;22913;51.910;8.374;2023-06-24T04:41:53;10.27;;;9.37;;
37001;SDS011;22913;51.910;8.374;2023-06-24T04:44:39;11.70;;;9.57;;
37001;SDS011;22913;51.910;8.374;2023-06-24T04:47:24;9.00;;;8.20;;
37001;SDS011;22913;51.910;8.374;2023-06-24T04:50:10;10.03;;;8.97;;
37001;SDS011;22913;51.910;8.374;2023-06-24T04:52:57;9.60;;;8.70;;
37001;SDS011;22913;51.910;8.374;2023-06-24T04:55:43;13.77;;;8.70;;
37001;SDS011;22913;51.910;8.374;2023-06-24T04:58:29;9.43;;;8.63;;
37001;SDS011;22913;51.910;8.374;2023-06-24T05:01:14;10.13;;;9.20;;
37001;SDS011;22913;51.910;8.374;2023-06-24T05:04:00;9.70;;;8.77;;
37001;SDS011;22913;51.910;8.374;2023-06-24T05:06:45;10.33;;;9.17;;
37001;SDS011;22913;51.910;8.374;2023-06-24T05:09:32;10.90;;;9.00;;
37001;SDS011;22913;51.910;8.374;2023-06-24T05:12:21;9.73;;;8.80;;
37001;SDS011;22913;51.910;8.374;2023-06-24T05:15:07;11.33;;;8.90;;
37001;SDS011;22913;51.910;8.374;2023-06-24T05:17:53;11.73;;;8.40;;
37001;SDS011;22913;51.910;8.374;2023-06-24T05:20:39;11.17;;;8.77;;
37001;SDS011;22913;51.910;8.374;2023-06-24T05:23:24;9.23;;;8.33;;
37001;SDS011;22913;51.910;8.374;2023-06-24T05:26:12;10.83;;;8.43;;
37001;SDS011;22913;51.910;8.374;2023-06-24T05:28:58;9.43;;;8.53;;
37001;SDS011;22913;51.910;8.374;2023-06-24T05:31:44;9.27;;;8.37;;
37001;SDS011;22913;51.910;8.374;2023-06-24T05:34:30;10.07;;;9.17;;
37001;SDS011;22913;51.910;8.374;2023-06-24T05:37:17;9.10;;;8.13;;
37001;SDS011;22913;51.910;8.374;2023-06-24T05:40:03;11.03;;;8.97;;
37001;SDS011;22913;51.910;8.374;2023-06-24T05:42:52;9.47;;;7.57;;
37001;SDS011;22913;51.910;8.374;2023-06-24T05:45:37;10.10;;;9.10;;
37001;SDS011;22913;51.910;8.374;2023-06-24T05:48:23;10.50;;;9.10;;
37001;SDS011;22913;51.910;8.374;2023-06-24T05:51:09;9.13;;;8.23;;
37001;SDS011;22913;51.910;8.374;2023-06-24T05:53:54;10.60;;;8.80;;
37001;SDS011;22913;51.910;8.374;2023-06-24T05:56:40;9.33;;;8.43;;
37001;SDS011;22913;51.910;8.374;2023-06-24T05:59:27;9.53;;;8.13;;
37001;SDS011;22913;51.910;8.374;2023-06-24T06:02:13;9.50;;;8.50;;
37001;SDS011;22913;51.910;8.374;2023-06-24T06:04:59;9.53;;;8.23;;
37001;SDS011;22913;51.910;8.374;2023-06-24T06:07:45;8.70;;;7.90;;
37001;SDS011;22913;51.910;8.374;2023-06-24T06:10:32;8.87;;;7.80;;
37001;SDS011;22913;51.910;8.374;2023-06-24T06:13:17;8.87;;;7.80;;
37001;SDS011;22913;51.910;8.374;2023-06-24T06:16:05;8.83;;;7.47;;
37001;SDS011;22913;51.910;8.374;2023-06-24T06:18:51;8.53;;;7.73;;
37001;SDS011;22913;51.910;8.374;2023-06-24T06:21:37;8.83;;;8.13;;
37001;SDS011;22913;51.910;8.374;2023-06-24T06:24:22;8.47;;;7.77;;
37001;SDS011;22913;51.910;8.374;2023-06-24T06:27:09;9.53;;;8.63;;
37001;SDS011;22913;51.910;8.374;2023-06-24T06:29:55;8.47;;;7.60;;
37001;SDS011;22913;51.910;8.374;2023-06-24T06:32:42;11.20;;;8.43;;
37001;SDS011;22913;51.910;8.374;2023-06-24T06:35:28;9.07;;;8.20;;
37001;SDS011;22913;51.910;8.374;2023-06-24T06:38:14;8.27;;;7.57;;
37001;SDS011;22913;51.910;8.374;2023-06-24T06:40:59;8.63;;;7.93;;
37001;SDS011;22913;51.910;8.374;2023-06-24T06:43:45;8.60;;;7.23;;
37001;SDS011;22913;51.910;8.374;2023-06-24T06:46:31;9.67;;;7.40;;
37001;SDS011;22913;51.910;8.374;2023-06-24T06:49:19;7.93;;;7.20;;
37001;SDS011;22913;51.910;8.374;2023-06-24T06:52:06;8.87;;;8.00;;
37001;SDS011;22913;51.910;8.374;2023-06-24T06:54:52;13.20;;;8.27;;
37001;SDS011;22913;51.910;8.374;2023-06-24T06:57:38;8.17;;;7.23;;
37001;SDS011;22913;51.910;8.374;2023-06-24T07:00:23;8.20;;;7.40;;
37001;SDS011;22913;51.910;8.374;2023-06-24T07:03:09;7.90;;;7.10;;
37001;SDS011;22913;51.910;8.374;2023-06-24T07:05:56;7.60;;;6.87;;
37001;SDS011;22913;51.910;8.374;2023-06-24T07:08:42;13.47;;;7.27;;
37001;SDS011;22913;51.910;8.374;2023-06-24T07:11:28;8.63;;;6.70;;
37001;SDS011;22913;51.910;8.374;2023-06-24T07:14:13;9.57;;;6.10;;
37001;SDS011;22913;51.910;8.374;2023-06-24T07:16:59;6.97;;;6.37;;
37001;SDS011;22913;51.910;8.374;2023-06-24T07:19:45;7.37;;;6.67;;
37001;SDS011;22913;51.910;8.374;2023-06-24T07:22:32;9.00;;;6.50;;
37001;SDS011;22913;51.910;8.374;2023-06-24T07:25:18;10.53;;;7.20;;
37001;SDS011;22913;51.910;8.374;2023-06-24T07:28:04;7.77;;;6.60;;
37001;SDS011;22913;51.910;8.374;2023-06-24T07:30:49;9.10;;;5.97;;
37001;SDS011;22913;51.910;8.374;2023-06-24T07:33:35;9.07;;;7.07;;
37001;SDS011;22913;51.910;8.374;2023-06-24T07:36:21;8.63;;;7.27;;
37001;SDS011;22913;51.910;8.374;2023-06-24T07:39:08;7.03;;;6.20;;
37001;SDS011;22913;51.910;8.374;2023-06-24T07:41:54;7.60;;;6.37;;
37001;SDS011;22913;51.910;8.374;2023-06-24T07:44:40;6.97;;;6.27;;
37001;SDS011;22913;51.910;8.374;2023-06-24T07:47:25;6.63;;;6.03;;
37001;SDS011;22913;51.910;8.374;2023-06-24T07:50:11;6.77;;;6.17;;
37001;SDS011;22913;51.910;8.374;2023-06-24T07:52:57;7.17;;;6.33;;
37001;SDS011;22913;51.910;8.374;2023-06-24T07:55:44;8.13;;;6.33;;
37001;SDS011;22913;51.910;8.374;2023-06-24T07:58:29;7.63;;;6.10;;
37001;SDS011;22913;51.910;8.374;2023-06-24T08:01:15;8.13;;;5.67;;
37001;SDS011;22913;51.910;8.374;2023-06-24T08:04:00;7.57;;;6.03;;
37001;SDS011;22913;51.910;8.374;2023-06-24T08:06:46;6.37;;;5.70;;
37001;SDS011;22913;51.910;8.374;2023-06-24T08:09:31;5.90;;;5.37;;
37001;SDS011;22913;51.910;8.374;2023-06-24T08:12:18;5.83;;;5.30;;
37001;SDS011;22913;51.910;8.374;2023-06-24T08:15:04;7.53;;;6.00;;
37001;SDS011;22913;51.910;8.374;2023-06-24T08:17:50;6.10;;;5.60;;
37001;SDS011;22913;51.910;8.374;2023-06-24T08:20:36;7.27;;;5.50;;
37001;SDS011;22913;51.910;8.374;2023-06-24T08:23:22;9.67;;;5.73;;
37001;SDS011;22913;51.910;8.374;2023-06-24T08:26:08;5.80;;;5.30;;
37001;SDS011;22913;51.910;8.374;2023-06-24T08:28:55;6.53;;;5.70;;
37001;SDS011;22913;51.910;8.374;2023-06-24T08:31:42;5.63;;;5.23;;
37001;SDS011;22913;51.910;8.374;2023-06-24T08:34:28;5.43;;;5.00;;
37001;SDS011;22913;51.910;8.374;2023-06-24T08:37:13;5.37;;;4.97;;
37001;SDS011;22913;51.910;8.374;2023-06-24T08:39:59;5.57;;;5.00;;
37001;SDS011;22913;51.910;8.374;2023-06-24T08:42:45;5.30;;;4.83;;
37001;SDS011;22913;51.910;8.374;2023-06-24T08:45:32;5.60;;;5.10;;
37001;SDS011;22913;51.910;8.374;2023-06-24T08:48:18;6.13;;;5.23;;
37001;SDS011;22913;51.910;8.374;2023-06-24T08:51:05;6.60;;;6.00;;
37001;SDS011;22913;51.910;8.374;2023-06-24T08:53:53;7.03;;;6.33;;
37001;SDS011;22913;51.910;8.374;2023-06-24T08:56:39;8.03;;;5.90;;
37001;SDS011;22913;51.910;8.374;2023-06-24T08:59:26;6.90;;;6.30;;
37001;SDS011;22913;51.910;8.374;2023-06-24T09:02:13;6.40;;;5.80;;
37001;SDS011;22913;51.910;8.374;2023-06-24T09:04:59;7.47;;;6.77;;
37001;SDS011;22913;51.910;8.374;2023-06-24T09:07:45;5.90;;;5.40;;
37001;SDS011;22913;51.910;8.374;2023-06-24T09:10:31;6.57;;;6.03;;
37001;SDS011;22913;51.910;8.374;2023-06-24T09:13:17;8.37;;;6.13;;
37001;SDS011;22913;51.910;8.374;2023-06-24T09:16:10;5.73;;;5.30;;
37001;SDS011;22913;51.910;8.374;2023-06-24T09:18:59;7.23;;;5.93;;
37001;SDS011;22913;51.910;8.374;2023-06-24T09:21:44;6.77;;;5.73;;
37001;SDS011;22913;51.910;8.374;2023-06-24T09:24:30;6.70;;;6.10;;
37001;SDS011;22913;51.910;8.374;2023-06-24T09:27:16;5.40;;;4.97;;
37001;SDS011;22913;51.910;8.374;2023-06-24T09:30:16;5.73;;;4.80;;
37001;SDS011;22913;51.910;8.374;2023-06-24T09:33:03;9.40;;;4.33;;
37001;SDS011;22913;51.910;8.374;2023-06-24T09:35:50;5.63;;;4.70;;
37001;SDS011;22913;51.910;8.374;2023-06-24T09:38:36;7.13;;;4.97;;
37001;SDS011;22913;51.910;8.374;2023-06-24T09:41:24;7.90;;;5.33;;
37001;SDS011;22913;51.910;8.374;2023-06-24T09:44:11;6.50;;;5.90;;
37001;SDS011;22913;51.910;8.374;2023-06-24T09:46:56;5.50;;;5.00;;
37001;SDS011;22913;51.910;8.374;2023-06-24T09:49:42;6.50;;;5.80;;
37001;SDS011;22913;51.910;8.374;2023-06-24T09:52:29;6.73;;;5.80;;
37001;SDS011;22913;51.910;8.374;2023-06-24T09:55:18;6.77;;;6.17;;
37001;SDS011;22913;51.910;8.374;2023-06-24T09:58:04;7.93;;;6.50;;
37001;SDS011;22913;51.910;8.374;2023-06-24T10:00:49;7.10;;;5.30;;
37001;SDS011;22913;51.910;8.374;2023-06-24T10:03:36;6.57;;;5.17;;
37001;SDS011;22913;51.910;8.374;2023-06-24T10:06:23;6.60;;;5.90;;
37001;SDS011;22913;51.910;8.374;2023-06-24T10:09:10;7.83;;;5.87;;
37001;SDS011;22913;51.910;8.374;2023-06-24T10:11:57;5.63;;;5.03;;
37001;SDS011;22913;51.910;8.374;2023-06-24T10:14:43;4.90;;;4.50;;
37001;SDS011;22913;51.910;8.374;2023-06-24T10:17:29;5.90;;;5.30;;
37001;SDS011;22913;51.910;8.374;2023-06-24T10:20:23;5.47;;;5.07;;
37001;SDS011;22913;51.910;8.374;2023-06-24T10:23:10;5.50;;;3.97;;
37001;SDS011;22913;51.910;8.374;2023-06-24T10:25:57;5.13;;;4.63;;
37001;SDS011;22913;51.910;8.374;2023-06-24T10:31:54;5.43;;;4.93;;
37001;SDS011;22913;51.910;8.374;2023-06-24T10:34:40;5.27;;;4.77;;
37001;SDS011;22913;51.910;8.374;2023-06-24T10:37:26;5.80;;;5.30;;
37001;SDS011;22913;51.910;8.374;2023-06-24T10:40:16;5.47;;;4.97;;
37001;SDS011;22913;51.910;8.374;2023-06-24T10:43:26;5.47;;;4.90;;
37001;SDS011;22913;51.910;8.374;2023-06-24T10:46:14;4.83;;;4.37;;
37001;SDS011;22913;51.910;8.374;2023-06-24T10:49:00;4.70;;;4.30;;
37001;SDS011;22913;51.910;8.374;2023-06-24T10:51:46;4.27;;;3.90;;
37001;SDS011;22913;51.910;8.374;2023-06-24T10:54:32;5.10;;;4.60;;
37001;SDS011;22913;51.910;8.374;2023-06-24T10:57:21;4.73;;;4.23;;
37001;SDS011;22913;51.910;8.374;2023-06-24T11:00:10;4.83;;;4.27;;
37001;SDS011;22913;51.910;8.374;2023-06-24T11:02:56;4.53;;;4.10;;
37001;SDS011;22913;51.910;8.374;2023-06-24T11:05:43;4.60;;;4.20;;
37001;SDS011;22913;51.910;8.374;2023-06-24T11:08:29;5.77;;;4.33;;
37001;SDS011;22913;51.910;8.374;2023-06-24T11:11:18;5.00;;;4.50;;
37001;SDS011;22913;51.910;8.374;2023-06-24T11:14:05;5.17;;;4.47;;
37001;SDS011;22913;51.910;8.374;2023-06-24T11:16:52;5.23;;;4.00;;
37001;SDS011;22913;51.910;8.374;2023-06-24T11:19:38;4.83;;;4.43;;
37001;SDS011;22913;51.910;8.374;2023-06-24T11:22:25;5.23;;;4.80;;
37001;SDS011;22913;51.910;8.374;2023-06-24T11:25:14;5.60;;;4.73;;
37001;SDS011;22913;51.910;8.374;2023-06-24T11:28:01;5.77;;;4.67;;
37001;SDS011;22913;51.910;8.374;2023-06-24T11:30:47;4.87;;;4.37;;
37001;SDS011;22913;51.910;8.374;2023-06-24T11:33:34;4.33;;;3.47;;
37001;SDS011;22913;51.910;8.374;2023-06-24T11:36:19;4.70;;;4.17;;
37001;SDS011;22913;51.910;8.374;2023-06-24T11:39:05;5.17;;;4.40;;
37001;SDS011;22913;51.910;8.374;2023-06-24T11:41:51;4.60;;;4.30;;
37001;SDS011;22913;51.910;8.374;2023-06-24T11:44:40;3.93;;;3.63;;
37001;SDS011;22913;51.910;8.374;2023-06-24T11:47:27;5.23;;;4.17;;
37001;SDS011;22913;51.910;8.374;2023-06-24T11:50:17;5.57;;;4.03;;
37001;SDS011;22913;51.910;8.374;2023-06-24T11:53:03;4.40;;;4.10;;
37001;SDS011;22913;51.910;8.374;2023-06-24T11:55:51;4.50;;;3.67;;
37001;SDS011;22913;51.910;8.374;2023-06-24T11:58:41;4.50;;;4.10;;
37001;SDS011;22913;51.910;8.374;2023-06-24T12:01:30;4.27;;;3.90;;
37001;SDS011;22913;51.910;8.374;2023-06-24T12:04:15;5.10;;;4.60;;
37001;SDS011;22913;51.910;8.374;2023-06-24T12:07:03;4.10;;;3.70;;
37001;SDS011;22913;51.910;8.374;2023-06-24T12:09:48;4.30;;;4.00;;
37001;SDS011;22913;51.910;8.374;2023-06-24T12:12:34;4.73;;;4.33;;
37001;SDS011;22913;51.910;8.374;2023-06-24T12:15:20;4.63;;;4.17;;
37001;SDS011;22913;51.910;8.374;2023-06-24T12:18:06;4.40;;;4.00;;
37001;SDS011;22913;51.910;8.374;2023-06-24T12:20:51;5.83;;;4.13;;
37001;SDS011;22913;51.910;8.374;2023-06-24T12:23:38;4.97;;;4.50;;
37001;SDS011;22913;51.910;8.374;2023-06-24T12:26:24;4.00;;;3.70;;
37001;SDS011;22913;51.910;8.374;2023-06-24T12:29:09;4.00;;;3.33;;
37001;SDS011;22913;51.910;8.374;2023-06-24T12:31:55;3.80;;;3.30;;
37001;SDS011;22913;51.910;8.374;2023-06-24T12:34:41;4.33;;;3.77;;
37001;SDS011;22913;51.910;8.374;2023-06-24T12:37:28;4.07;;;3.77;;
37001;SDS011;22913;51.910;8.374;2023-06-24T12:40:16;4.43;;;4.03;;
37001;SDS011;22913;51.910;8.374;2023-06-24T12:43:01;3.93;;;3.63;;
37001;SDS011;22913;51.910;8.374;2023-06-24T12:45:48;5.50;;;3.53;;
37001;SDS011;22913;51.910;8.374;2023-06-24T12:48:34;3.73;;;3.40;;
37001;SDS011;22913;51.910;8.374;2023-06-24T12:51:20;4.33;;;4.03;;
37001;SDS011;22913;51.910;8.374;2023-06-24T12:54:06;4.10;;;3.73;;
37001;SDS011;22913;51.910;8.374;2023-06-24T12:56:53;3.70;;;3.40;;
37001;SDS011;22913;51.910;8.374;2023-06-24T12:59:38;3.77;;;3.43;;
37001;SDS011;22913;51.910;8.374;2023-06-24T13:02:24;4.07;;;3.77;;
37001;SDS011;22913;51.910;8.374;2023-06-24T13:05:10;3.47;;;3.17;;
37001;SDS011;22913;51.910;8.374;2023-06-24T13:07:55;4.63;;;4.33;;
37001;SDS011;22913;51.910;8.374;2023-06-24T13:10:41;4.10;;;3.80;;
37001;SDS011;22913;51.910;8.374;2023-06-24T13:13:28;5.80;;;4.10;;
37001;SDS011;22913;51.910;8.374;2023-06-24T13:16:13;4.10;;;3.80;;
37001;SDS011;22913;51.910;8.374;2023-06-24T13:18:59;4.63;;;4.33;;
37001;SDS011;22913;51.910;8.374;2023-06-24T13:21:45;4.20;;;3.90;;
37001;SDS011;22913;51.910;8.374;2023-06-24T13:24:30;4.50;;;4.20;;
37001;SDS011;22913;51.910;8.374;2023-06-24T13:27:16;5.13;;;4.63;;
37001;SDS011;22913;51.910;8.374;2023-06-24T13:30:04;4.20;;;3.90;;
37001;SDS011;22913;51.910;8.374;2023-06-24T13:32:50;4.20;;;3.90;;
37001;SDS011;22913;51.910;8.374;2023-06-24T13:35:35;4.20;;;3.90;;
37001;SDS011;22913;51.910;8.374;2023-06-24T13:38:21;4.60;;;4.20;;
37001;SDS011;22913;51.910;8.374;2023-06-24T13:41:06;4.20;;;3.90;;
37001;SDS011;22913;51.910;8.374;2023-06-24T13:43:52;4.07;;;3.67;;
37001;SDS011;22913;51.910;8.374;2023-06-24T13:46:39;4.53;;;4.20;;
37001;SDS011;22913;51.910;8.374;2023-06-24T13:49:24;4.20;;;3.90;;
37001;SDS011;22913;51.910;8.374;2023-06-24T13:52:10;4.27;;;3.97;;
37001;SDS011;22913;51.910;8.374;2023-06-24T13:54:56;4.20;;;3.80;;
37001;SDS011;22913;51.910;8.374;2023-06-24T13:57:41;4.03;;;3.70;;
37001;SDS011;22913;51.910;8.374;2023-06-24T14:00:27;4.67;;;4.10;;
37001;SDS011;22913;51.910;8.374;2023-06-24T14:03:14;4.10;;;3.65;;
37001;SDS011;22913;51.910;8.374;2023-06-24T14:05:59;4.57;;;3.80;;
37001;SDS011;22913;51.910;8.374;2023-06-24T14:08:46;4.43;;;3.83;;
37001;SDS011;22913;51.910;8.374;2023-06-24T14:11:32;4.90;;;4.00;;
37001;SDS011;22913;51.910;8.374;2023-06-24T14:14:18;5.65;;;3.50;;
37001;SDS011;22913;51.910;8.374;2023-06-24T14:17:03;4.75;;;4.38;;
37001;SDS011;22913;51.910;8.374;2023-06-24T14:19:53;4.80;;;3.90;;
37001;SDS011;22913;51.910;8.374;2023-06-24T14:22:39;4.70;;;4.40;;
37001;SDS011;22913;51.910;8.374;2023-06-24T14:25:25;4.78;;;4.43;;
37001;SDS011;22913;51.910;8.374;2023-06-24T14:28:10;4.13;;;3.83;;
37001;SDS011;22913;51.910;8.374;2023-06-24T14:30:56;3.95;;;3.65;;
37001;SDS011;22913;51.910;8.374;2023-06-24T14:33:42;4.72;;;4.25;;
37001;SDS011;22913;51.910;8.374;2023-06-24T14:36:29;6.32;;;4.20;;
37001;SDS011;22913;51.910;8.374;2023-06-24T14:39:15;6.00;;;4.50;;
37001;SDS011;22913;51.910;8.374;2023-06-24T14:42:01;4.13;;;3.83;;
37001;SDS011;22913;51.910;8.374;2023-06-24T14:44:47;4.82;;;4.43;;
37001;SDS011;22913;51.910;8.374;2023-06-24T14:47:33;4.75;;;4.40;;
37001;SDS011;22913;51.910;8.374;2023-06-24T14:50:19;5.43;;;4.80;;
37001;SDS011;22913;51.910;8.374;2023-06-24T14:53:06;6.43;;;4.68;;
37001;SDS011;22913;51.910;8.374;2023-06-24T14:55:51;6.38;;;5.75;;
37001;SDS011;22913;51.910;8.374;2023-06-24T14:58:37;5.50;;;4.70;;
37001;SDS011;22913;51.910;8.374;2023-06-24T15:01:23;5.80;;;4.32;;
37001;SDS011;22913;51.910;8.374;2023-06-24T15:04:08;5.03;;;4.63;;
37001;SDS011;22913;51.910;8.374;2023-06-24T15:06:54;4.93;;;4.53;;
37001;SDS011;22913;51.910;8.374;2023-06-24T15:09:41;4.10;;;3.80;;
37001;SDS011;22913;51.910;8.374;2023-06-24T15:12:27;4.45;;;4.15;;
37001;SDS011;22913;51.910;8.374;2023-06-24T15:15:12;5.80;;;4.40;;
37001;SDS011;22913;51.910;8.374;2023-06-24T15:17:58;6.88;;;4.20;;
37001;SDS011;22913;51.910;8.374;2023-06-24T15:20:44;4.78;;;4.32;;
37001;SDS011;22913;51.910;8.374;2023-06-24T15:23:30;5.63;;;4.07;;
37001;SDS011;22913;51.910;8.374;2023-06-24T15:26:17;6.38;;;4.30;;
37001;SDS011;22913;51.910;8.374;2023-06-24T15:29:02;4.75;;;4.30;;
37001;SDS011;22913;51.910;8.374;2023-06-24T15:31:47;13.30;;;12.30;;
37001;SDS011;22913;51.910;8.374;2023-06-24T15:34:33;4.63;;;4.22;;
37001;SDS011;22913;51.910;8.374;2023-06-24T15:37:19;7.05;;;5.03;;
37001;SDS011;22913;51.910;8.374;2023-06-24T15:40:05;4.25;;;3.95;;
37001;SDS011;22913;51.910;8.374;2023-06-24T15:42:53;4.40;;;4.10;;
37001;SDS011;22913;51.910;8.374;2023-06-24T15:45:38;6.63;;;6.13;;
37001;SDS011;22913;51.910;8.374;2023-06-24T15:48:24;12.90;;;11.70;;
37001;SDS011;22913;51.910;8.374;2023-06-24T15:51:10;4.97;;;4.53;;
37001;SDS011;22913;51.910;8.374;2023-06-24T15:53:55;10.75;;;9.95;;
37001;SDS011;22913;51.910;8.374;2023-06-24T15:56:41;3.97;;;3.67;;
37001;SDS011;22913;51.910;8.374;2023-06-24T15:59:28;4.50;;;4.10;;
37001;SDS011;22913;51.910;8.374;2023-06-24T16:02:14;18.88;;;17.10;;
37001;SDS011;22913;51.910;8.374;2023-06-24T16:04:59;5.30;;;4.75;;
37001;SDS011;22913;51.910;8.374;2023-06-24T16:07:48;5.55;;;3.97;;
37001;SDS011;22913;51.910;8.374;2023-06-24T16:10:34;4.20;;;3.88;;
37001;SDS011;22913;51.910;8.374;2023-06-24T16:13:20;4.45;;;3.70;;
37001;SDS011;22913;51.910;8.374;2023-06-24T16:16:07;4.30;;;3.92;;
37001;SDS011;22913;51.910;8.374;2023-06-24T16:18:52;4.25;;;3.88;;
37001;SDS011;22913;51.910;8.374;2023-06-24T16:21:38;4.00;;;3.70;;
37001;SDS011;22913;51.910;8.374;2023-06-24T16:24:24;3.70;;;3.50;;
37001;SDS011;22913;51.910;8.374;2023-06-24T16:27:11;3.90;;;3.60;;
37001;SDS011;22913;51.910;8.374;2023-06-24T16:29:56;4.00;;;3.70;;
37001;SDS011;22913;51.910;8.374;2023-06-24T16:32:43;3.78;;;3.47;;
37001;SDS011;22913;51.910;8.374;2023-06-24T16:35:29;3.78;;;3.47;;
37001;SDS011;22913;51.910;8.374;2023-06-24T16:38:15;5.32;;;3.63;;
37001;SDS011;22913;51.910;8.374;2023-06-24T16:41:00;4.45;;;3.78;;
37001;SDS011;22913;51.910;8.374;2023-06-24T16:43:47;4.68;;;3.30;;
37001;SDS011;22913;51.910;8.374;2023-06-24T16:46:32;3.92;;;3.63;;